Terminal Aerodrome Forecast
Issued by NWS

Home | Current Version | Previous Version | Text Only | Print | Product List | Glossary On
Versions: 1 2 3 4 5 6 7 8 9 10 11 12 13 14 15
000
FTUS43 KGRB 042326
TAFRHI
TAF
KRHI 042326Z 0500/0524 19005KT 2SM -SN BKN006 OVC012
     FM050200 22005KT 4SM -FZDZSN BR BKN006 OVC012
     FM050600 24007KT 4SM BR OVC012
     FM051300 22005KT 4SM BR BKN250
     FM051500 20007KT P6SM BKN250
     FM051800 16009KT P6SM SCT018 OVC080
      TEMPO 0522/0524 BKN018=

USA.gov is the U.S. government's official web portal to all federal, state and local government web resources and services.